Time;durP1;ratioP1;P1;durP2;ratioP2;P2;SDS_P1;SDS_P2;PMS_P1;PMS_P2;Temp;Humidity;BMP_temperature;BMP_pressure;BME280_temperature;BME280_humidity;BME280_pressure;Samples;Min_cycle;Max_cycle;Signal;HPM_P1;HPM_P2
2022/06/11 00:01:34;;;;;;;11.40;9.35;;;;;;;;;;5012202;28;20087;-75
2022/06/11 00:04:02;;;;;;;13.00;9.95;;;;;;;;;;5014742;28;20049;-74
2022/06/11 00:06:29;;;;;;;14.05;10.43;;;;;;;;;;5013703;28;20033;-74
2022/06/11 00:08:56;;;;;;;13.45;10.68;;;;;;;;;;5026133;28;20569;-74
2022/06/11 00:11:22;;;;;;;15.25;11.45;;;;;;;;;;5012708;28;20037;-75
2022/06/11 00:13:48;;;;;;;13.43;11.18;;;;;;;;;;5013522;28;20038;-74
2022/06/11 00:16:15;;;;;;;15.52;10.98;;;;;;;;;;5017185;28;20034;-75
2022/06/11 00:18:42;;;;;;;14.90;11.13;;;;;;;;;;5009494;28;20468;-75
2022/06/11 00:21:08;;;;;;;13.85;10.75;;;;;;;;;;5013591;28;20026;-74
2022/06/11 00:23:34;;;;;;;13.88;10.10;;;;;;;;;;5017645;28;20041;-75
2022/06/11 00:26:01;;;;;;;12.90;10.82;;;;;;;;;;5018860;28;20033;-74
2022/06/11 00:28:27;;;;;;;14.48;10.85;;;;;;;;;;5016072;28;20036;-74
2022/06/11 00:30:53;;;;;;;13.05;10.98;;;;;;;;;;5013998;28;20116;-74
2022/06/11 00:33:20;;;;;;;14.85;10.80;;;;;;;;;;5012794;28;20032;-74
2022/06/11 00:35:46;;;;;;;14.43;11.10;;;;;;;;;;5013765;28;20028;-74
2022/06/11 00:38:13;;;;;;;12.40;11.10;;;;;;;;;;5012930;28;20398;-74
2022/06/11 00:40:40;;;;;;;13.63;12.25;;;;;;;;;;5012535;28;20106;-75
2022/06/11 00:43:07;;;;;;;12.30;10.82;;;;;;;;;;5013291;28;20468;-73
2022/06/11 00:45:42;;;;;;;12.35;11.05;;;;;;;;;;5013488;28;20030;-74
2022/06/11 00:48:21;;;;;;;12.52;11.30;;;;;;;;;;5014098;28;20026;-75
2022/06/11 00:50:48;;;;;;;14.38;11.68;;;;;;;;;;5012395;28;20038;-74
2022/06/11 00:53:20;;;;;;;13.25;11.85;;;;;;;;;;5011309;28;20022;-74
2022/06/11 00:55:47;;;;;;;16.15;12.20;;;;;;;;;;5011927;28;20026;-74
2022/06/11 00:58:16;;;;;;;19.55;12.13;;;;;;;;;;5014439;28;20040;-75
2022/06/11 01:00:44;;;;;;;14.75;12.52;;;;;;;;;;5012491;28;20018;-75
2022/06/11 01:03:14;;;;;;;14.63;11.82;;;;;;;;;;5012578;28;20510;-75
2022/06/11 01:05:44;;;;;;;13.45;12.02;;;;;;;;;;5011870;28;20030;-74
2022/06/11 01:08:25;;;;;;;13.43;11.73;;;;;;;;;;5012925;28;20033;-74
2022/06/11 01:10:54;;;;;;;13.70;12.30;;;;;;;;;;5007094;28;20069;-74
2022/06/11 01:13:36;;;;;;;14.55;11.98;;;;;;;;;;5016470;28;20073;-75
2022/06/11 01:16:15;;;;;;;15.45;11.98;;;;;;;;;;5017209;28;20097;-74
2022/06/11 01:18:50;;;;;;;15.43;11.68;;;;;;;;;;5015825;28;20136;-74
2022/06/11 01:21:21;;;;;;;13.73;12.15;;;;;;;;;;5014489;28;20491;-75
2022/06/11 01:23:53;;;;;;;14.57;12.23;;;;;;;;;;5015818;28;20656;-75
2022/06/11 01:26:29;;;;;;;17.33;12.25;;;;;;;;;;5016562;28;20034;-74
2022/06/11 01:29:01;;;;;;;13.85;12.45;;;;;;;;;;5016506;28;20491;-75
2022/06/11 01:31:30;;;;;;;15.23;12.57;;;;;;;;;;5015810;28;20029;-75
2022/06/11 01:34:05;;;;;;;16.60;12.80;;;;;;;;;;5015747;28;20561;-74
2022/06/11 01:36:42;;;;;;;15.25;12.20;;;;;;;;;;5016645;28;20112;-74
2022/06/11 01:39:08;;;;;;;14.63;11.82;;;;;;;;;;5016803;28;20026;-74
2022/06/11 01:41:55;;;;;;;16.80;12.48;;;;;;;;;;5025167;28;20026;-74
2022/06/11 01:44:23;;;;;;;18.48;13.23;;;;;;;;;;5016196;28;20101;-74
2022/06/11 01:46:53;;;;;;;16.38;13.02;;;;;;;;;;5016565;28;20041;-75
2022/06/11 01:49:24;;;;;;;15.30;12.40;;;;;;;;;;5016217;28;20492;-74
2022/06/11 01:52:03;;;;;;;15.18;12.80;;;;;;;;;;5020453;28;20049;-74
2022/06/11 01:54:47;;;;;;;16.13;13.15;;;;;;;;;;5017025;28;20018;-74
2022/06/11 01:57:34;;;;;;;15.57;12.13;;;;;;;;;;5004682;28;20044;-74
2022/06/11 02:00:12;;;;;;;14.40;12.90;;;;;;;;;;5017477;28;20052;-75
2022/06/11 02:02:53;;;;;;;19.30;13.20;;;;;;;;;;5019584;28;20022;-75
2022/06/11 02:05:22;;;;;;;16.05;12.77;;;;;;;;;;5016019;28;20022;-74
2022/06/11 02:07:54;;;;;;;19.27;13.23;;;;;;;;;;5016223;28;20149;-75
2022/06/11 02:10:35;;;;;;;17.63;13.50;;;;;;;;;;5020614;28;20438;-75
2022/06/11 02:13:27;;;;;;;16.60;13.43;;;;;;;;;;5024158;28;20190;-75
2022/06/11 02:16:13;;;;;;;18.05;13.57;;;;;;;;;;4977183;28;20061;-74
2022/06/11 02:18:40;;;;;;;14.48;12.93;;;;;;;;;;5002443;28;20034;-74
2022/06/11 02:21:10;;;;;;;18.55;13.35;;;;;;;;;;5017019;28;20026;-74
2022/06/11 02:23:41;;;;;;;16.58;13.63;;;;;;;;;;5014960;28;20108;-75
2022/06/11 02:26:13;;;;;;;16.13;13.63;;;;;;;;;;5016178;28;20065;-74
2022/06/11 02:28:42;;;;;;;18.40;14.63;;;;;;;;;;5018040;28;20025;-75
2022/06/11 02:31:11;;;;;;;15.57;13.98;;;;;;;;;;5017288;28;20040;-75
2022/06/11 02:33:37;;;;;;;16.05;13.75;;;;;;;;;;5002572;28;20017;-75
2022/06/11 02:36:12;;;;;;;14.73;13.23;;;;;;;;;;5016728;28;20050;-74
2022/06/11 02:38:38;;;;;;;17.60;13.88;;;;;;;;;;5017973;28;20022;-75
2022/06/11 02:41:09;;;;;;;19.10;14.18;;;;;;;;;;5019946;28;20034;-74
2022/06/11 02:43:36;;;;;;;17.35;14.60;;;;;;;;;;5016184;28;20380;-74
2022/06/11 02:46:40;;;;;;;22.52;14.25;;;;;;;;;;5016584;28;20431;-75
2022/06/11 02:48:51;;;;;;;20.85;14.35;;;;;;;;;;5015327;28;20033;-75
2022/06/11 02:51:18;;;;;;;16.27;13.80;;;;;;;;;;5014690;28;20030;-75
2022/06/11 02:53:44;;;;;;;16.80;13.90;;;;;;;;;;5016262;28;20030;-74
2022/06/11 02:56:11;;;;;;;18.40;13.63;;;;;;;;;;5016337;28;20105;-75
2022/06/11 02:58:39;;;;;;;17.15;13.18;;;;;;;;;;5016182;28;20026;-74
2022/06/11 03:01:06;;;;;;;15.25;13.35;;;;;;;;;;5026738;28;20140;-74
2022/06/11 03:03:32;;;;;;;19.73;14.27;;;;;;;;;;5016269;28;20045;-75
2022/06/11 03:05:59;;;;;;;16.05;14.35;;;;;;;;;;5015064;28;20101;-75
2022/06/11 03:08:26;;;;;;;15.35;13.75;;;;;;;;;;5015734;28;20105;-75
2022/06/11 03:10:54;;;;;;;20.45;14.00;;;;;;;;;;5018036;28;20030;-74
2022/06/11 03:13:21;;;;;;;15.70;13.63;;;;;;;;;;4997553;28;20558;-75
2022/06/11 03:15:50;;;;;;;18.52;13.48;;;;;;;;;;4996695;28;20442;-74
2022/06/11 03:18:16;;;;;;;14.20;12.82;;;;;;;;;;4998539;28;20030;-75
2022/06/11 03:20:42;;;;;;;18.48;13.32;;;;;;;;;;4997353;28;20022;-75
2022/06/11 03:23:08;;;;;;;16.30;13.27;;;;;;;;;;4998951;28;20058;-74
2022/06/11 03:25:35;;;;;;;20.70;13.35;;;;;;;;;;5012817;28;20037;-74
2022/06/11 03:28:08;;;;;;;14.73;13.10;;;;;;;;;;4997300;28;20121;-75
2022/06/11 03:30:34;;;;;;;;;;;;;;;;;;4994737;28;20038;-75
2022/06/11 03:33:00;;;;;;;16.90;12.95;;;;;;;;;;4996079;28;19909;-75
2022/06/11 03:35:29;;;;;;;17.20;13.07;;;;;;;;;;4998008;28;20094;-75
2022/06/11 03:37:56;;;;;;;15.65;13.18;;;;;;;;;;5003073;28;20030;-75
2022/06/11 03:40:23;;;;;;;15.73;11.80;;;;;;;;;;4997235;28;20030;-75
2022/06/11 03:42:49;;;;;;;15.55;11.85;;;;;;;;;;4996287;28;20031;-75
2022/06/11 03:45:15;;;;;;;14.23;12.20;;;;;;;;;;4997381;28;20100;-74
2022/06/11 03:47:41;;;;;;;18.88;13.27;;;;;;;;;;5001864;28;20023;-75
2022/06/11 03:50:10;;;;;;;14.50;11.98;;;;;;;;;;4995076;28;20038;-75
2022/06/11 03:52:36;;;;;;;15.07;12.25;;;;;;;;;;4996504;28;20033;-75
2022/06/11 03:55:02;;;;;;;13.68;12.13;;;;;;;;;;4997525;28;20370;-75
2022/06/11 03:57:28;;;;;;;13.85;11.85;;;;;;;;;;5000374;28;20479;-75
2022/06/11 03:59:57;;;;;;;16.13;11.52;;;;;;;;;;5000834;28;20030;-74
2022/06/11 04:02:26;;;;;;;13.07;11.77;;;;;;;;;;4997534;28;20030;-75
2022/06/11 04:04:52;;;;;;;16.95;12.15;;;;;;;;;;5007985;28;20030;-76
2022/06/11 04:07:18;;;;;;;17.20;11.80;;;;;;;;;;5000947;28;20077;-75
2022/06/11 04:09:45;;;;;;;12.98;11.55;;;;;;;;;;4994707;28;20038;-74
2022/06/11 04:12:15;;;;;;;16.52;12.13;;;;;;;;;;4995500;28;20094;-75
2022/06/11 04:14:42;;;;;;;17.38;12.38;;;;;;;;;;5001410;28;20034;-75
2022/06/11 04:17:11;;;;;;;13.88;11.52;;;;;;;;;;5004454;28;20032;-74
2022/06/11 04:19:39;;;;;;;14.50;11.40;;;;;;;;;;5001712;28;20105;-74
2022/06/11 04:22:05;;;;;;;13.95;11.40;;;;;;;;;;5002213;28;20025;-74
2022/06/11 04:24:34;;;;;;;19.08;11.40;;;;;;;;;;4985244;28;20372;-74
2022/06/11 04:27:02;;;;;;;14.52;11.13;;;;;;;;;;4999939;28;20033;-73
2022/06/11 04:29:29;;;;;;;16.50;11.15;;;;;;;;;;5004692;28;20030;-73
2022/06/11 04:31:59;;;;;;;14.95;10.55;;;;;;;;;;4996856;28;20044;-73
2022/06/11 04:34:26;;;;;;;16.17;10.43;;;;;;;;;;5003338;28;20150;-73
2022/06/11 04:36:52;;;;;;;13.35;9.75;;;;;;;;;;4996558;28;20085;-74
2022/06/11 04:39:20;;;;;;;12.75;10.50;;;;;;;;;;5008024;28;20101;-73
2022/06/11 04:41:49;;;;;;;12.38;10.18;;;;;;;;;;4996919;28;20041;-73
2022/06/11 04:44:15;;;;;;;12.68;10.00;;;;;;;;;;5002294;28;20030;-74
2022/06/11 04:46:41;;;;;;;14.48;10.27;;;;;;;;;;5006553;28;20056;-74
2022/06/11 04:49:08;;;;;;;13.98;9.95;;;;;;;;;;5010162;28;20105;-74
2022/06/11 04:51:34;;;;;;;11.35;10.10;;;;;;;;;;5017663;28;20058;-74
2022/06/11 04:54:00;;;;;;;12.98;9.93;;;;;;;;;;5017646;28;20029;-75
2022/06/11 04:56:27;;;;;;;12.20;9.40;;;;;;;;;;5018591;28;20040;-76
2022/06/11 04:58:53;;;;;;;11.52;9.48;;;;;;;;;;5013781;28;20037;-74
2022/06/11 05:01:20;;;;;;;13.23;9.82;;;;;;;;;;5014375;28;20032;-74
2022/06/11 05:03:47;;;;;;;13.45;9.88;;;;;;;;;;5016659;28;20025;-74
2022/06/11 05:06:15;;;;;;;11.95;9.40;;;;;;;;;;5018305;28;20053;-74
2022/06/11 05:08:42;;;;;;;11.55;9.77;;;;;;;;;;5015537;28;20030;-74
2022/06/11 05:11:08;;;;;;;15.20;9.55;;;;;;;;;;5018403;28;20645;-75
2022/06/11 05:13:34;;;;;;;12.20;9.77;;;;;;;;;;5015859;28;20073;-74
2022/06/11 05:16:01;;;;;;;11.88;9.82;;;;;;;;;;5011804;28;20036;-76
2022/06/11 05:18:28;;;;;;;11.60;9.80;;;;;;;;;;5016049;28;20502;-78
2022/06/11 05:20:54;;;;;;;16.50;10.40;;;;;;;;;;5015087;28;20542;-76
2022/06/11 05:23:20;;;;;;;12.75;10.07;;;;;;;;;;5016200;28;20022;-81
2022/06/11 05:25:47;;;;;;;11.25;9.80;;;;;;;;;;4996632;28;20502;-79
2022/06/11 05:28:19;;;;;;;13.90;9.95;;;;;;;;;;5014873;28;20115;-82
2022/06/11 05:30:45;;;;;;;10.73;9.63;;;;;;;;;;4997424;28;20041;-80
2022/06/11 05:33:12;;;;;;;11.45;9.60;;;;;;;;;;5016348;28;20030;-86
2022/06/11 05:35:38;;;;;;;13.55;10.23;;;;;;;;;;5013095;28;20026;-80
2022/06/11 05:38:06;;;;;;;13.05;10.10;;;;;;;;;;5012872;28;20364;-83
2022/06/11 05:40:38;;;;;;;11.48;9.60;;;;;;;;;;5015910;28;20034;-80
2022/06/11 05:43:05;;;;;;;12.07;10.25;;;;;;;;;;4998308;28;20029;-81
2022/06/11 05:45:33;;;;;;;13.23;10.35;;;;;;;;;;5015910;28;20026;-75
2022/06/11 05:48:00;;;;;;;14.10;9.63;;;;;;;;;;5014722;28;20365;-72
2022/06/11 05:50:29;;;;;;;79.50;57.20;;;;;;;;;;5024378;28;20037;-75
2022/06/11 05:52:56;;;;;;;13.05;10.13;;;;;;;;;;5016347;28;20046;-77
2022/06/11 05:55:26;;;;;;;15.30;10.68;;;;;;;;;;5012569;28;20025;-87
2022/06/11 05:57:54;;;;;;;16.35;10.73;;;;;;;;;;4983898;28;20022;-85
2022/06/11 06:00:22;;;;;;;15.80;10.73;;;;;;;;;;4998801;28;20041;-87
2022/06/11 06:02:48;;;;;;;16.63;10.82;;;;;;;;;;5014821;28;20034;-88
2022/06/11 06:05:16;;;;;;;15.77;11.80;;;;;;;;;;5002965;28;20034;-75
2022/06/11 06:10:50;;;;;;;14.85;10.82;;;;;;;;;;5015524;28;20053;-80
2022/06/11 06:16:01;;;;;;;13.35;11.15;;;;;;;;;;5016702;28;20097;-78
2022/06/11 06:18:27;;;;;;;14.30;11.10;;;;;;;;;;5001882;28;20140;-77
2022/06/11 06:20:53;;;;;;;12.73;10.98;;;;;;;;;;5013982;28;20061;-82
2022/06/11 06:23:20;;;;;;;15.90;9.95;;;;;;;;;;4996960;28;20388;-80
2022/06/11 06:25:46;;;;;;;12.82;9.60;;;;;;;;;;4996988;28;20033;-81
2022/06/11 06:28:12;;;;;;;21.42;10.43;;;;;;;;;;5014676;28;20018;-91
2022/06/11 06:30:40;;;;;;;12.75;8.45;;;;;;;;;;5013190;28;20042;-90
2022/06/11 06:45:20;;;;;;;12.27;10.20;;;;;;;;;;4954631;29;20528;-93
2022/06/11 06:47:47;;;;;;;13.63;9.88;;;;;;;;;;4954370;28;20031;-74
2022/06/11 06:50:13;;;;;;;17.70;10.65;;;;;;;;;;4951152;29;20130;-78
2022/06/11 06:52:39;;;;;;;11.95;10.35;;;;;;;;;;4963996;28;20050;-80
2022/06/11 06:55:06;;;;;;;12.00;10.60;;;;;;;;;;4951502;28;20043;-83
2022/06/11 06:57:32;;;;;;;11.82;10.55;;;;;;;;;;4953852;29;20025;-80
2022/06/11 06:59:58;;;;;;;16.02;11.25;;;;;;;;;;4951516;28;20116;-77
2022/06/11 07:02:25;;;;;;;14.43;11.50;;;;;;;;;;4952087;28;20094;-78
2022/06/11 07:04:51;;;;;;;13.30;10.68;;;;;;;;;;4951418;28;20019;-84
2022/06/11 07:07:17;;;;;;;12.63;10.43;;;;;;;;;;4952290;29;20120;-78
2022/06/11 07:09:44;;;;;;;12.13;9.90;;;;;;;;;;4948393;28;20131;-91
2022/06/11 07:12:12;;;;;;;12.80;9.15;;;;;;;;;;4935922;29;20035;-86
2022/06/11 07:14:38;;;;;;;12.80;9.23;;;;;;;;;;4952527;29;20285;-88
2022/06/11 07:17:06;;;;;;;12.23;8.73;;;;;;;;;;4937783;29;20062;-87
2022/06/11 07:19:58;;;;;;;12.98;8.95;;;;;;;;;;4950070;28;20026;-89
2022/06/11 07:22:31;;;;;;;13.10;9.95;;;;;;;;;;4980214;28;20057;-88
2022/06/11 07:24:58;;;;;;;10.43;7.90;;;;;;;;;;4996029;28;20030;-85
2022/06/11 07:27:26;;;;;;;13.45;8.57;;;;;;;;;;5008737;28;20037;-86
2022/06/11 07:29:56;;;;;;;14.73;8.98;;;;;;;;;;5012176;28;20101;-86
2022/06/11 07:32:23;;;;;;;9.32;8.07;;;;;;;;;;4994429;28;20022;-89
2022/06/11 07:34:49;;;;;;;9.35;8.00;;;;;;;;;;5012176;28;20084;-83
2022/06/11 07:37:16;;;;;;;11.10;8.95;;;;;;;;;;4994549;28;20455;-89
2022/06/11 07:39:42;;;;;;;11.35;8.43;;;;;;;;;;4994678;28;20077;-86
2022/06/11 07:42:09;;;;;;;12.80;8.35;;;;;;;;;;4995401;28;20045;-83
2022/06/11 07:44:38;;;;;;;12.88;8.43;;;;;;;;;;5012577;28;20026;-92
2022/06/11 07:47:04;;;;;;;9.77;8.70;;;;;;;;;;4994981;28;20487;-86
2022/06/11 07:49:31;;;;;;;12.23;8.23;;;;;;;;;;4995175;28;20403;-91
2022/06/11 07:51:57;;;;;;;11.88;9.07;;;;;;;;;;4996172;28;20487;-84
2022/06/11 07:54:23;;;;;;;9.55;7.45;;;;;;;;;;5013024;28;20057;-88
2022/06/11 07:56:49;;;;;;;10.15;7.63;;;;;;;;;;5011163;28;20109;-91
2022/06/11 07:59:16;;;;;;;12.20;7.00;;;;;;;;;;4994880;28;20894;-82
2022/06/11 08:01:42;;;;;;;9.93;7.20;;;;;;;;;;5011489;28;20030;-84
2022/06/11 08:04:08;;;;;;;9.38;6.90;;;;;;;;;;5009364;28;20022;-77
2022/06/11 08:06:34;;;;;;;8.75;7.07;;;;;;;;;;5010802;28;20450;-73
2022/06/11 08:09:01;;;;;;;12.82;7.15;;;;;;;;;;4993121;28;20502;-80
2022/06/11 08:11:27;;;;;;;8.85;7.10;;;;;;;;;;4995044;28;20038;-79
2022/06/11 08:13:53;;;;;;;9.50;6.68;;;;;;;;;;5010493;28;20527;-77
2022/06/11 08:16:20;;;;;;;11.30;7.00;;;;;;;;;;5010053;28;20160;-84
2022/06/11 08:18:46;;;;;;;8.23;6.85;;;;;;;;;;4994338;28;20488;-79
2022/06/11 08:21:12;;;;;;;8.55;6.80;;;;;;;;;;5005771;28;20505;-74
2022/06/11 08:23:39;;;;;;;9.57;6.90;;;;;;;;;;5009453;28;20033;-80
2022/06/11 08:26:06;;;;;;;8.30;6.55;;;;;;;;;;5009956;28;20088;-81
2022/06/11 08:28:32;;;;;;;8.18;7.22;;;;;;;;;;5009929;28;20062;-85
2022/06/11 08:30:58;;;;;;;10.13;6.45;;;;;;;;;;4995571;28;20041;-84
2022/06/11 08:33:25;;;;;;;9.60;6.65;;;;;;;;;;5006678;28;20104;-89
2022/06/11 08:35:51;;;;;;;12.60;6.85;;;;;;;;;;5010972;28;20033;-82
2022/06/11 08:38:18;;;;;;;8.20;6.32;;;;;;;;;;5007188;28;20046;-76
2022/06/11 08:40:48;;;;;;;7.78;6.63;;;;;;;;;;5010970;28;20033;-80
2022/06/11 08:43:30;;;;;;;7.25;6.50;;;;;;;;;;5012000;28;20101;-89
2022/06/11 08:46:01;;;;;;;12.60;6.40;;;;;;;;;;5005805;28;20036;-74
2022/06/11 08:48:27;;;;;;;8.23;6.13;;;;;;;;;;5011438;28;20475;-75
2022/06/11 08:51:05;;;;;;;8.20;6.38;;;;;;;;;;5008564;28;20038;-78
2022/06/11 08:53:36;;;;;;;7.47;6.43;;;;;;;;;;5012650;28;20475;-81
2022/06/11 08:56:02;;;;;;;11.73;5.70;;;;;;;;;;4991100;28;20039;-86
2022/06/11 08:58:38;;;;;;;6.38;5.72;;;;;;;;;;5010453;28;20018;-77
2022/06/11 09:01:07;;;;;;;7.53;5.03;;;;;;;;;;5005532;28;20030;-81
2022/06/11 09:03:36;;;;;;;8.23;5.80;;;;;;;;;;5005654;28;20029;-77
2022/06/11 09:06:08;;;;;;;7.85;5.85;;;;;;;;;;5008407;28;20038;-80
2022/06/11 09:08:37;;;;;;;10.23;5.88;;;;;;;;;;5010412;28;20028;-85
2022/06/11 09:11:19;;;;;;;7.78;6.95;;;;;;;;;;4994185;28;20407;-75
2022/06/11 09:13:48;;;;;;;9.77;6.18;;;;;;;;;;5011274;28;20084;-82
2022/06/11 09:16:14;;;;;;;7.75;6.28;;;;;;;;;;4992182;28;20030;-82
2022/06/11 09:18:50;;;;;;;8.02;6.35;;;;;;;;;;5012049;28;20024;-88
2022/06/11 09:21:22;;;;;;;11.10;6.55;;;;;;;;;;4992800;28;20034;-83
2022/06/11 09:23:48;;;;;;;8.80;6.80;;;;;;;;;;5011303;28;20040;-82
2022/06/11 09:26:33;;;;;;;7.28;6.35;;;;;;;;;;5009999;28;20483;-76
2022/06/11 09:29:02;;;;;;;8.20;6.75;;;;;;;;;;5010456;28;20175;-86
2022/06/11 09:31:31;;;;;;;10.02;6.70;;;;;;;;;;5010337;28;20064;-79
2022/06/11 09:34:05;;;;;;;8.57;6.80;;;;;;;;;;5010341;28;20030;-77
2022/06/11 09:36:35;;;;;;;9.90;7.13;;;;;;;;;;5012852;28;20045;-83
2022/06/11 09:39:14;;;;;;;8.90;6.97;;;;;;;;;;4995929;28;20049;-83
2022/06/11 09:41:56;;;;;;;12.43;7.63;;;;;;;;;;5003974;28;20128;-87
2022/06/11 09:44:41;;;;;;;9.10;7.25;;;;;;;;;;4997085;28;20048;-80
2022/06/11 09:47:17;;;;;;;8.48;6.80;;;;;;;;;;5011438;28;20032;-87
2022/06/11 09:49:46;;;;;;;9.35;7.85;;;;;;;;;;4992816;28;20044;-80
2022/06/11 09:52:16;;;;;;;8.45;7.60;;;;;;;;;;5013319;28;20494;-86
2022/06/11 09:54:59;;;;;;;9.35;7.50;;;;;;;;;;4995759;28;20029;-83
2022/06/11 09:57:26;;;;;;;11.17;7.83;;;;;;;;;;5008537;28;20040;-82
2022/06/11 09:59:55;;;;;;;10.48;6.78;;;;;;;;;;5013228;28;20057;-86
2022/06/11 10:05:20;;;;;;;11.82;7.15;;;;;;;;;;4960620;28;20110;-88
2022/06/11 10:07:51;;;;;;;9.55;7.05;;;;;;;;;;4953660;28;20118;-88
2022/06/11 10:10:29;;;;;;;10.98;6.63;;;;;;;;;;4955431;28;20046;-92
2022/06/11 10:13:02;;;;;;;7.13;6.38;;;;;;;;;;4948562;28;20031;-88
2022/06/11 10:15:32;;;;;;;9.20;6.20;;;;;;;;;;4952533;28;20118;-87
2022/06/11 10:18:17;;;;;;;8.30;5.90;;;;;;;;;;4953227;28;20031;-80
2022/06/11 10:20:43;;;;;;;10.18;6.00;;;;;;;;;;4962785;28;20520;-81
2022/06/11 10:23:15;;;;;;;7.18;5.75;;;;;;;;;;4951048;28;20568;-77
2022/06/11 10:25:47;;;;;;;9.10;5.60;;;;;;;;;;4953220;29;20062;-78
2022/06/11 10:28:17;;;;;;;13.63;5.30;;;;;;;;;;4953661;29;20079;-81
2022/06/11 10:30:52;;;;;;;7.13;5.30;;;;;;;;;;4955324;29;20044;-85
2022/06/11 10:33:24;;;;;;;10.88;5.57;;;;;;;;;;4954244;29;20458;-87
2022/06/11 10:35:56;;;;;;;7.90;5.07;;;;;;;;;;4953045;28;20484;-85
2022/06/11 10:38:31;;;;;;;6.45;5.40;;;;;;;;;;4952413;29;20052;-79
2022/06/11 10:40:58;;;;;;;11.07;5.07;;;;;;;;;;4964592;28;20052;-80
2022/06/11 10:43:28;;;;;;;8.70;4.97;;;;;;;;;;4994670;28;20050;-77
2022/06/11 10:45:55;;;;;;;6.57;5.03;;;;;;;;;;5010840;28;20504;-77
2022/06/11 10:48:23;;;;;;;9.00;5.80;;;;;;;;;;5014349;28;20014;-81
2022/06/11 10:50:49;;;;;;;7.28;5.38;;;;;;;;;;5009625;28;20499;-84
2022/06/11 10:53:31;;;;;;;6.18;4.70;;;;;;;;;;5012974;28;20029;-82
2022/06/11 10:56:00;;;;;;;6.22;5.38;;;;;;;;;;5016434;28;20030;-87
2022/06/11 10:58:26;;;;;;;8.30;4.88;;;;;;;;;;5019297;28;20061;-80
2022/06/11 11:00:54;;;;;;;10.15;5.55;;;;;;;;;;5005966;28;20026;-80
2022/06/11 11:03:29;;;;;;;7.75;5.45;;;;;;;;;;5008085;28;20036;-90
2022/06/11 11:06:00;;;;;;;7.95;4.85;;;;;;;;;;4995810;28;20029;-84
2022/06/11 11:08:26;;;;;;;11.13;5.45;;;;;;;;;;5014157;28;20547;-87
2022/06/11 11:10:54;;;;;;;7.18;5.13;;;;;;;;;;5009936;28;20037;-77
2022/06/11 11:13:29;;;;;;;6.47;4.47;;;;;;;;;;5011144;28;20378;-85
2022/06/11 11:15:58;;;;;;;6.53;4.88;;;;;;;;;;5013648;28;20030;-89
2022/06/11 11:18:27;;;;;;;7.65;4.80;;;;;;;;;;5010914;28;20036;-80
2022/06/11 11:20:56;;;;;;;7.38;5.00;;;;;;;;;;5010760;28;20022;-78
2022/06/11 11:23:30;;;;;;;12.13;4.93;;;;;;;;;;5008680;28;20037;-81
2022/06/11 11:26:15;;;;;;;8.60;5.35;;;;;;;;;;5011450;28;20026;-82
2022/06/11 11:28:59;;;;;;;7.05;4.85;;;;;;;;;;5011768;28;20026;-80
2022/06/11 11:31:31;;;;;;;9.27;5.80;;;;;;;;;;5005965;28;20547;-87
2022/06/11 11:34:02;;;;;;;8.93;5.50;;;;;;;;;;5014255;28;20045;-85
2022/06/11 11:36:28;;;;;;;8.35;5.57;;;;;;;;;;4994969;28;20025;-90
2022/06/11 11:39:01;;;;;;;12.38;5.80;;;;;;;;;;5015365;28;20018;-84
2022/06/11 11:41:33;;;;;;;9.40;5.50;;;;;;;;;;5010161;28;20017;-86
2022/06/11 11:43:59;;;;;;;7.88;5.50;;;;;;;;;;5012980;28;20041;-83
2022/06/11 11:46:26;;;;;;;11.35;5.60;;;;;;;;;;4995617;28;20029;-79
2022/06/11 11:48:54;;;;;;;17.17;5.72;;;;;;;;;;5012775;28;20028;-86
2022/06/11 11:51:34;;;;;;;11.20;5.35;;;;;;;;;;5010279;28;20048;-82
2022/06/11 11:54:05;;;;;;;9.77;6.82;;;;;;;;;;5012920;28;20448;-85
2022/06/11 11:56:40;;;;;;;8.05;5.22;;;;;;;;;;4995828;28;20113;-88
2022/06/11 11:59:19;;;;;;;9.50;5.95;;;;;;;;;;5011295;28;20089;-77
2022/06/11 12:01:46;;;;;;;8.65;5.72;;;;;;;;;;5008076;28;20029;-77
2022/06/11 12:04:12;;;;;;;7.70;5.07;;;;;;;;;;5012722;28;20037;-80
2022/06/11 12:06:57;;;;;;;13.30;5.65;;;;;;;;;;5012125;28;20034;-76
2022/06/11 12:09:23;;;;;;;12.70;5.32;;;;;;;;;;5009116;28;20554;-86
2022/06/11 12:11:58;;;;;;;8.45;5.28;;;;;;;;;;5012944;28;20161;-82
2022/06/11 12:14:32;;;;;;;10.23;5.10;;;;;;;;;;5008992;28;20026;-88
2022/06/11 12:17:03;;;;;;;9.40;5.57;;;;;;;;;;5013566;28;20069;-88
2022/06/11 12:19:33;;;;;;;8.68;5.25;;;;;;;;;;5011552;28;20030;-88
2022/06/11 12:22:04;;;;;;;5.55;4.78;;;;;;;;;;5012777;28;20108;-83
2022/06/11 12:24:43;;;;;;;8.43;5.22;;;;;;;;;;5008611;28;20041;-82
2022/06/11 12:27:33;;;;;;;7.68;5.43;;;;;;;;;;5011156;28;20033;-86
2022/06/11 12:30:01;;;;;;;9.95;5.00;;;;;;;;;;4917183;29;20056;-76
2022/06/11 12:32:28;;;;;;;7.07;4.97;;;;;;;;;;4928358;29;20115;-80
2022/06/11 12:34:55;;;;;;;7.60;5.22;;;;;;;;;;4913048;29;22153;-76
2022/06/11 12:37:32;;;;;;;8.80;5.45;;;;;;;;;;4924259;29;20172;-82
2022/06/11 12:40:04;;;;;;;9.75;5.32;;;;;;;;;;4930458;29;20438;-79
2022/06/11 12:42:46;;;;;;;10.00;4.97;;;;;;;;;;4932287;29;20027;-77
2022/06/11 12:45:19;;;;;;;9.25;5.32;;;;;;;;;;4931386;29;20111;-78
2022/06/11 12:47:58;;;;;;;8.02;4.70;;;;;;;;;;4933209;29;20525;-82
2022/06/11 12:50:27;;;;;;;6.88;4.85;;;;;;;;;;4931887;29;20039;-82
2022/06/11 12:53:02;;;;;;;9.10;4.72;;;;;;;;;;4932581;29;20486;-76
2022/06/11 12:55:38;;;;;;;6.45;4.63;;;;;;;;;;4931671;29;20035;-87
2022/06/11 12:58:19;;;;;;;7.53;4.85;;;;;;;;;;4947521;29;20056;-73
2022/06/11 13:00:51;;;;;;;9.90;4.97;;;;;;;;;;4927251;29;20032;-76
2022/06/11 13:03:40;;;;;;;6.97;4.68;;;;;;;;;;4931316;29;20509;-74
2022/06/11 13:06:13;;;;;;;9.07;5.05;;;;;;;;;;4942101;28;20493;-88
2022/06/11 13:08:44;;;;;;;8.38;5.25;;;;;;;;;;4997762;28;20379;-92
2022/06/11 13:11:16;;;;;;;9.45;5.30;;;;;;;;;;4997444;28;20396;-75
2022/06/11 13:13:51;;;;;;;6.28;4.90;;;;;;;;;;5014616;28;20029;-85
2022/06/11 13:16:29;;;;;;;9.77;4.43;;;;;;;;;;4996567;28;20491;-73
2022/06/11 13:18:58;;;;;;;7.72;4.50;;;;;;;;;;4986173;28;20041;-72
2022/06/11 13:21:54;;;;;;;9.10;4.78;;;;;;;;;;4996267;28;20040;-85
2022/06/11 13:24:20;;;;;;;7.65;4.63;;;;;;;;;;4935486;29;20051;-72
2022/06/11 13:26:56;;;;;;;9.00;4.93;;;;;;;;;;4931879;29;20083;-75
2022/06/11 13:29:25;;;;;;;6.78;4.90;;;;;;;;;;4921733;29;20123;-76
2022/06/11 13:32:00;;;;;;;7.68;5.00;;;;;;;;;;4925137;29;20054;-79
2022/06/11 13:34:32;;;;;;;9.70;5.28;;;;;;;;;;4935400;29;20064;-89
2022/06/11 13:36:58;;;;;;;8.70;4.63;;;;;;;;;;4927986;29;20138;-85
2022/06/11 13:39:43;;;;;;;5.53;4.53;;;;;;;;;;4941278;29;20442;-88
2022/06/11 13:42:12;;;;;;;5.57;4.70;;;;;;;;;;4936367;29;20444;-79
2022/06/11 13:44:44;;;;;;;10.73;4.97;;;;;;;;;;4934976;29;20131;-77
2022/06/11 13:47:31;;;;;;;8.35;4.85;;;;;;;;;;4935626;29;20032;-86
2022/06/11 13:50:16;;;;;;;9.57;5.20;;;;;;;;;;4939845;29;20045;-83
2022/06/11 13:55:33;;;;;;;11.75;4.95;;;;;;;;;;4936577;29;20607;-81
2022/06/11 13:57:59;;;;;;;7.18;4.30;;;;;;;;;;4949856;29;20558;-75
2022/06/11 14:00:34;;;;;;;5.60;4.65;;;;;;;;;;4965168;28;20169;-82
2022/06/11 14:03:21;;;;;;;10.50;4.78;;;;;;;;;;5011087;28;20398;-76
2022/06/11 14:05:49;;;;;;;6.72;5.13;;;;;;;;;;5013552;28;20030;-76
2022/06/11 14:08:15;;;;;;;5.82;5.20;;;;;;;;;;5014845;28;20045;-73
2022/06/11 14:10:46;;;;;;;11.20;4.97;;;;;;;;;;4994796;28;20045;-78
2022/06/11 14:13:21;;;;;;;9.02;4.72;;;;;;;;;;4994743;28;20021;-86
2022/06/11 14:15:52;;;;;;;8.60;4.68;;;;;;;;;;5008377;28;20026;-74
2022/06/11 14:18:21;;;;;;;9.18;4.70;;;;;;;;;;5011684;28;20033;-74
2022/06/11 14:20:51;;;;;;;8.32;5.60;;;;;;;;;;5014585;28;20026;-85
2022/06/11 14:23:18;;;;;;;8.10;5.10;;;;;;;;;;5012179;28;20022;-86
2022/06/11 14:25:48;;;;;;;7.30;4.60;;;;;;;;;;5009919;28;20023;-74
2022/06/11 14:28:17;;;;;;;7.22;4.45;;;;;;;;;;4991167;28;20030;-75
2022/06/11 14:30:47;;;;;;;6.50;4.45;;;;;;;;;;5013631;28;20057;-85
2022/06/11 14:33:14;;;;;;;7.72;4.80;;;;;;;;;;4995300;28;20384;-77
2022/06/11 14:35:49;;;;;;;6.55;4.57;;;;;;;;;;4996463;28;20407;-87
2022/06/11 14:38:22;;;;;;;12.93;5.35;;;;;;;;;;5012724;28;20045;-85
2022/06/11 14:40:53;;;;;;;6.28;4.90;;;;;;;;;;4989059;28;20030;-78
2022/06/11 14:43:21;;;;;;;12.60;5.03;;;;;;;;;;5010593;28;20040;-74
2022/06/11 14:45:47;;;;;;;7.90;4.55;;;;;;;;;;5015083;28;20018;-73
2022/06/11 14:48:20;;;;;;;12.93;6.80;;;;;;;;;;5011854;28;20088;-82
2022/06/11 14:51:12;;;;;;;7.55;4.53;;;;;;;;;;5014111;28;20040;-79
2022/06/11 14:53:38;;;;;;;8.20;4.70;;;;;;;;;;5010007;28;20076;-80
2022/06/11 14:56:13;;;;;;;7.28;4.45;;;;;;;;;;5010668;28;20096;-72
2022/06/11 14:58:59;;;;;;;9.35;4.45;;;;;;;;;;5014075;28;20022;-72
2022/06/11 15:01:44;;;;;;;6.32;4.40;;;;;;;;;;5005432;28;20026;-72
2022/06/11 15:04:10;;;;;;;6.47;5.15;;;;;;;;;;5009368;28;20037;-86
2022/06/11 15:06:36;;;;;;;11.38;6.72;;;;;;;;;;4998820;28;20030;-77
2022/06/11 15:09:21;;;;;;;6.55;4.90;;;;;;;;;;5014455;28;20037;-77
2022/06/11 15:11:47;;;;;;;7.57;5.03;;;;;;;;;;5010526;28;20116;-82
2022/06/11 15:14:32;;;;;;;7.80;5.15;;;;;;;;;;4996460;28;20100;-85